createdAt,value
2023-01-10T00:01:31.075Z,8.76
2023-01-10T00:03:58.935Z,8.80
2023-01-10T00:06:27.964Z,8.64
2023-01-10T00:08:57.260Z,8.71
2023-01-10T00:11:43.065Z,8.68
2023-01-10T00:14:12.189Z,8.70
2023-01-10T00:16:40.592Z,8.73
2023-01-10T00:19:09.629Z,8.69
2023-01-10T00:21:39.615Z,8.63
2023-01-10T00:24:17.892Z,8.57
2023-01-10T00:26:47.618Z,8.56
2023-01-10T00:29:16.016Z,8.60
2023-01-10T00:31:43.695Z,8.64
2023-01-10T00:34:11.419Z,8.58
2023-01-10T00:36:40.557Z,8.61
2023-01-10T00:39:12.467Z,8.57
2023-01-10T00:41:58.378Z,8.31
2023-01-10T00:44:27.072Z,8.41
2023-01-10T00:46:55.269Z,8.52
2023-01-10T00:49:23.017Z,8.44
2023-01-10T00:51:52.135Z,8.50
2023-01-10T00:54:19.939Z,8.50
2023-01-10T00:56:47.639Z,8.49
2023-01-10T00:59:15.412Z,8.53
2023-01-10T01:01:43.337Z,8.60
2023-01-10T01:04:11.171Z,8.54
2023-01-10T01:06:38.889Z,8.51
2023-01-10T01:09:07.957Z,8.60
2023-01-10T01:11:35.720Z,8.53
2023-01-10T01:14:03.452Z,8.45
2023-01-10T01:16:31.165Z,8.51
2023-01-10T01:18:59.576Z,8.56
2023-01-10T01:21:28.259Z,8.68
2023-01-10T01:23:57.544Z,8.68
2023-01-10T01:26:27.652Z,8.61
2023-01-10T01:28:55.416Z,8.64
2023-01-10T01:31:23.244Z,8.57
2023-01-10T01:33:51.597Z,8.62
2023-01-10T01:36:20.000Z,8.62
2023-01-10T01:38:47.866Z,8.59
2023-01-10T01:41:32.491Z,8.58
2023-01-10T01:44:05.314Z,8.59
2023-01-10T01:46:35.150Z,8.58
2023-01-10T01:49:06.008Z,8.58
2023-01-10T01:51:35.530Z,8.59
2023-01-10T01:54:05.722Z,8.57
2023-01-10T01:56:37.909Z,8.59
2023-01-10T01:59:12.653Z,8.59
2023-01-10T02:01:42.845Z,8.60
2023-01-10T02:04:16.729Z,8.64
2023-01-10T02:06:47.074Z,8.54
2023-01-10T02:09:22.083Z,8.59
2023-01-10T02:11:50.013Z,8.59
2023-01-10T02:14:21.494Z,8.57
2023-01-10T02:16:49.284Z,8.51
2023-01-10T02:19:26.202Z,8.50
2023-01-10T02:22:44.702Z,8.45
2023-01-10T02:25:53.450Z,8.51
2023-01-10T02:28:55.105Z,8.50
2023-01-10T02:31:44.735Z,8.49
2023-01-10T02:34:21.103Z,8.50
2023-01-10T02:36:58.595Z,8.45
2023-01-10T02:39:35.417Z,8.44
2023-01-10T02:42:08.066Z,8.42
2023-01-10T02:44:41.758Z,8.48
2023-01-10T02:47:10.137Z,8.52
2023-01-10T02:49:45.053Z,8.49
2023-01-10T02:52:15.967Z,8.49
2023-01-10T02:54:43.836Z,8.41
2023-01-10T02:57:26.726Z,8.45
2023-01-10T03:00:09.880Z,8.52
2023-01-10T03:02:51.161Z,8.62
2023-01-10T03:05:32.650Z,8.58
2023-01-10T03:08:19.541Z,8.54
2023-01-10T03:10:53.702Z,8.50
2023-01-10T03:13:27.906Z,8.44
2023-01-10T03:15:58.286Z,8.49
2023-01-10T03:18:32.878Z,8.46
2023-01-10T03:21:05.882Z,8.36
2023-01-10T03:23:35.286Z,8.36
2023-01-10T03:26:06.108Z,8.30
2023-01-10T03:28:39.523Z,8.35
2023-01-10T03:31:12.394Z,8.36
2023-01-10T03:33:40.867Z,8.36
2023-01-10T03:36:23.188Z,8.41
2023-01-10T03:38:55.282Z,8.34
2023-01-10T03:41:32.013Z,8.40
2023-01-10T03:44:25.575Z,8.40
2023-01-10T03:46:58.289Z,8.36
2023-01-10T03:49:28.491Z,8.37
2023-01-10T03:51:59.556Z,8.36
2023-01-10T03:54:27.931Z,8.33
2023-01-10T03:56:55.637Z,8.12
2023-01-10T03:59:25.916Z,8.32
2023-01-10T04:01:54.237Z,8.27
2023-01-10T04:04:22.268Z,8.22
2023-01-10T04:06:50.030Z,8.30
2023-01-10T04:09:19.064Z,8.23
2023-01-10T04:11:46.779Z,8.26
2023-01-10T04:14:14.426Z,8.25
2023-01-10T04:16:42.112Z,8.26
2023-01-10T04:19:09.759Z,8.27
2023-01-10T04:21:37.600Z,8.30
2023-01-10T04:24:05.485Z,8.30
2023-01-10T04:26:34.668Z,8.27
2023-01-10T04:29:02.480Z,8.21
2023-01-10T04:31:30.317Z,8.21
2023-01-10T04:33:58.088Z,8.22
2023-01-10T04:36:25.807Z,8.21
2023-01-10T04:38:53.584Z,8.21
2023-01-10T04:41:21.346Z,8.30
2023-01-10T04:43:50.682Z,8.23
2023-01-10T04:46:18.687Z,8.17
2023-01-10T04:48:46.414Z,8.20
2023-01-10T04:51:14.185Z,8.18
2023-01-10T04:53:42.341Z,8.14
2023-01-10T04:56:17.911Z,8.17
2023-01-10T04:58:45.821Z,8.12
2023-01-10T05:01:17.356Z,8.10
2023-01-10T05:03:45.349Z,8.08
2023-01-10T05:06:13.100Z,8.19
2023-01-10T05:08:40.937Z,8.15
2023-01-10T05:11:08.702Z,8.20
2023-01-10T05:13:36.420Z,8.20
2023-01-10T05:16:04.324Z,8.25
2023-01-10T05:18:33.937Z,8.21
2023-01-10T05:21:02.895Z,8.14
2023-01-10T05:23:30.864Z,8.25
2023-01-10T05:25:58.659Z,8.23
2023-01-10T05:28:26.405Z,8.29
2023-01-10T05:30:54.174Z,8.25
2023-01-10T05:33:21.948Z,8.29
2023-01-10T05:35:51.138Z,8.26
2023-01-10T05:38:18.938Z,8.27
2023-01-10T05:40:46.728Z,8.22
2023-01-10T05:43:14.486Z,7.98
2023-01-10T05:45:43.646Z,7.97
2023-01-10T05:48:11.414Z,8.07
2023-01-10T05:50:39.091Z,8.11
2023-01-10T05:53:08.170Z,8.10
2023-01-10T05:55:35.990Z,8.10
2023-01-10T05:58:03.768Z,8.03
2023-01-10T06:00:31.464Z,8.04
2023-01-10T06:02:59.281Z,8.01
2023-01-10T06:05:27.008Z,7.98
2023-01-10T06:07:54.774Z,8.01
2023-01-10T06:10:24.892Z,7.87
2023-01-10T06:12:54.090Z,7.85
2023-01-10T06:15:21.834Z,7.88
2023-01-10T06:17:49.655Z,7.85
2023-01-10T06:20:18.437Z,7.89
2023-01-10T06:22:46.296Z,7.91
2023-01-10T06:25:15.731Z,7.93
2023-01-10T06:27:45.266Z,8.02
2023-01-10T06:30:14.573Z,7.89
2023-01-10T06:32:42.544Z,7.97
2023-01-10T06:35:11.292Z,8.02
2023-01-10T06:37:39.537Z,8.04
2023-01-10T06:40:08.513Z,8.00
2023-01-10T06:42:36.299Z,8.08
2023-01-10T06:45:06.239Z,8.06
2023-01-10T06:47:34.037Z,7.99
2023-01-10T06:50:01.858Z,7.83
2023-01-10T06:52:30.063Z,8.06
2023-01-10T06:54:57.921Z,8.07
2023-01-10T06:57:25.708Z,8.15
2023-01-10T06:59:53.415Z,8.06
2023-01-10T07:02:22.654Z,8.08
2023-01-10T07:04:50.448Z,8.10
2023-01-10T07:07:18.207Z,8.06
2023-01-10T07:09:46.334Z,8.08
2023-01-10T07:12:14.195Z,8.05
2023-01-10T07:14:41.979Z,8.14
2023-01-10T07:17:09.694Z,7.95
2023-01-10T07:19:38.796Z,7.95
2023-01-10T07:22:06.491Z,7.86
2023-01-10T07:24:34.367Z,7.87
2023-01-10T07:27:02.232Z,7.92
2023-01-10T07:29:29.974Z,7.95
2023-01-10T07:31:57.664Z,8.06
2023-01-10T07:34:25.435Z,8.02
2023-01-10T07:36:54.520Z,8.07
2023-01-10T07:39:22.238Z,8.10
2023-01-10T07:41:50.484Z,8.11
2023-01-10T07:44:18.213Z,8.16
2023-01-10T07:46:45.947Z,8.12
2023-01-10T07:49:14.199Z,8.12
2023-01-10T07:51:41.989Z,8.01
2023-01-10T07:54:12.947Z,8.07
2023-01-10T07:56:41.891Z,8.12
2023-01-10T07:59:09.737Z,8.03
2023-01-10T08:01:37.533Z,7.98
2023-01-10T08:04:05.389Z,8.04
2023-01-10T08:06:33.213Z,8.02
2023-01-10T08:09:00.946Z,7.97
2023-01-10T08:11:30.060Z,7.96
2023-01-10T08:13:57.802Z,7.92
2023-01-10T08:16:25.662Z,7.93
2023-01-10T08:18:53.413Z,7.92
2023-01-10T08:21:21.188Z,7.91
2023-01-10T08:23:49.011Z,7.96
2023-01-10T08:26:16.731Z,7.97
2023-01-10T08:28:45.778Z,7.96
2023-01-10T08:31:13.604Z,7.95
2023-01-10T08:33:41.843Z,7.89
2023-01-10T08:36:16.984Z,7.92
2023-01-10T08:38:44.785Z,7.95
2023-01-10T08:41:13.630Z,7.91
2023-01-10T08:43:41.487Z,7.87
2023-01-10T08:46:10.664Z,7.88
2023-01-10T08:48:38.528Z,7.95
2023-01-10T08:51:08.874Z,7.95
2023-01-10T08:53:36.993Z,8.03
2023-01-10T08:56:05.712Z,8.00
2023-01-10T08:58:33.853Z,8.01
2023-01-10T09:01:05.059Z,7.98
2023-01-10T09:03:34.246Z,7.83
2023-01-10T09:06:02.978Z,7.92
2023-01-10T09:08:30.725Z,7.95
2023-01-10T09:10:59.620Z,7.93
2023-01-10T09:13:27.397Z,8.05
2023-01-10T09:15:55.113Z,8.01
2023-01-10T09:18:22.886Z,8.02
2023-01-10T09:20:52.563Z,8.07
2023-01-10T09:23:25.024Z,8.04
2023-01-10T09:25:54.823Z,7.99
2023-01-10T09:28:24.223Z,8.15
2023-01-10T09:30:52.480Z,8.24
2023-01-10T09:33:20.922Z,8.34
2023-01-10T09:35:48.837Z,8.44
2023-01-10T09:38:22.178Z,8.56
2023-01-10T09:41:15.532Z,8.58
2023-01-10T09:43:52.557Z,8.76
2023-01-10T09:46:27.639Z,8.78
2023-01-10T09:49:01.099Z,8.81
2023-01-10T09:51:36.313Z,8.86
2023-01-10T09:54:12.770Z,8.91
2023-01-10T09:56:41.685Z,9.00
2023-01-10T09:59:16.126Z,9.03
2023-01-10T10:01:44.115Z,9.12
2023-01-10T10:04:22.502Z,9.10
2023-01-10T10:06:51.167Z,9.15
2023-01-10T10:09:24.649Z,9.16
2023-01-10T10:12:09.320Z,9.16
2023-01-10T10:14:53.819Z,9.32
2023-01-10T10:17:42.232Z,9.31
2023-01-10T10:20:32.841Z,9.32
2023-01-10T10:23:21.617Z,9.37
2023-01-10T10:26:02.527Z,9.44
2023-01-10T10:29:12.476Z,9.47
2023-01-10T10:31:52.087Z,9.46
2023-01-10T10:34:25.831Z,9.59
2023-01-10T10:36:57.381Z,9.59
2023-01-10T10:39:33.165Z,9.63
2023-01-10T10:42:04.186Z,9.61
2023-01-10T10:44:38.152Z,9.71
2023-01-10T10:47:14.701Z,9.73
2023-01-10T10:49:46.149Z,9.83
2023-01-10T10:52:22.719Z,9.79
2023-01-10T10:54:50.656Z,9.78
2023-01-10T10:57:22.935Z,10.00
2023-01-10T10:59:50.762Z,10.01
2023-01-10T11:02:25.395Z,10.10
2023-01-10T11:04:56.305Z,10.10
2023-01-10T11:07:25.731Z,10.00
2023-01-10T11:09:59.344Z,10.08
2023-01-10T11:12:35.274Z,10.07
2023-01-10T11:15:04.212Z,10.08
2023-01-10T11:17:33.757Z,10.04
2023-01-10T11:20:03.026Z,10.06
2023-01-10T11:22:37.823Z,10.05
2023-01-10T11:25:06.668Z,10.01
2023-01-10T11:27:47.064Z,10.01
2023-01-10T11:30:22.219Z,9.93
2023-01-10T11:32:53.877Z,9.68
2023-01-10T11:35:26.261Z,9.92
2023-01-10T11:38:01.544Z,10.06
2023-01-10T11:40:31.226Z,10.05
2023-01-10T11:43:02.253Z,10.11
2023-01-10T11:45:36.081Z,10.11
2023-01-10T11:48:09.732Z,10.12
2023-01-10T11:50:40.496Z,9.88
2023-01-10T11:53:27.895Z,10.07
2023-01-10T11:55:55.772Z,10.06
2023-01-10T11:58:24.968Z,10.15
2023-01-10T12:00:52.823Z,10.16
2023-01-10T12:03:28.097Z,10.23
2023-01-10T12:05:58.022Z,10.13
2023-01-10T12:08:28.904Z,10.36
2023-01-10T12:11:02.810Z,10.36
2023-01-10T12:13:45.436Z,10.44
2023-01-10T12:16:18.073Z,10.37
2023-01-10T12:18:46.406Z,10.31
2023-01-10T12:21:17.336Z,10.34
2023-01-10T12:23:48.765Z,10.15
2023-01-10T12:26:17.417Z,10.12
2023-01-10T12:28:52.789Z,10.17
2023-01-10T12:31:23.688Z,10.11
2023-01-10T12:33:57.005Z,10.07
2023-01-10T12:36:36.141Z,10.11
2023-01-10T12:39:14.235Z,10.01
2023-01-10T12:42:07.773Z,10.01
2023-01-10T12:44:41.468Z,10.00
2023-01-10T12:47:19.412Z,10.06
2023-01-10T12:49:52.121Z,10.03
2023-01-10T12:52:29.623Z,10.01
2023-01-10T12:54:57.476Z,10.07
2023-01-10T12:57:31.549Z,9.95
2023-01-10T13:00:06.849Z,9.99
2023-01-10T13:02:41.339Z,9.99
2023-01-10T13:05:17.592Z,9.96
2023-01-10T13:07:47.019Z,9.70
2023-01-10T13:10:18.959Z,9.98
2023-01-10T13:12:51.680Z,9.99
2023-01-10T13:15:23.869Z,9.78
2023-01-10T13:17:55.718Z,9.93
2023-01-10T13:20:45.820Z,9.95
2023-01-10T13:23:23.749Z,9.95
2023-01-10T13:25:57.188Z,9.83
2023-01-10T13:28:27.002Z,9.83
2023-01-10T13:30:58.105Z,9.83
2023-01-10T13:33:28.027Z,9.82
2023-01-10T13:35:59.413Z,9.55
2023-01-10T13:38:35.633Z,9.79
2023-01-10T13:41:06.160Z,9.84
2023-01-10T13:44:01.997Z,9.88
2023-01-10T13:46:46.747Z,9.84
2023-01-10T13:49:40.689Z,9.83
2023-01-10T13:52:38.423Z,9.82
2023-01-10T13:55:24.621Z,9.80
2023-01-10T13:57:57.885Z,9.66
2023-01-10T14:00:59.467Z,9.73
2023-01-10T14:03:44.569Z,9.70
2023-01-10T14:06:17.041Z,9.72
2023-01-10T14:08:51.193Z,9.68
2023-01-10T14:11:19.746Z,9.69
2023-01-10T14:13:51.245Z,9.65
2023-01-10T14:16:35.203Z,9.58
2023-01-10T14:19:06.907Z,9.61
2023-01-10T14:21:42.357Z,9.58
2023-01-10T14:24:25.437Z,9.63
2023-01-10T14:26:57.303Z,9.60
2023-01-10T14:29:30.685Z,9.53
2023-01-10T14:32:00.503Z,9.53
2023-01-10T14:34:35.558Z,9.48
2023-01-10T14:37:09.858Z,9.51
2023-01-10T14:39:38.383Z,9.44
2023-01-10T14:42:09.329Z,9.36
2023-01-10T14:44:44.069Z,9.45
2023-01-10T14:47:28.773Z,9.44
2023-01-10T14:49:59.657Z,9.45
2023-01-10T14:52:28.059Z,9.33
2023-01-10T14:55:02.779Z,9.42
2023-01-10T14:57:30.656Z,9.34
2023-01-10T15:00:17.521Z,9.43
2023-01-10T15:02:46.662Z,9.42
2023-01-10T15:05:20.187Z,9.39
2023-01-10T15:07:48.120Z,9.43
2023-01-10T15:10:24.215Z,9.44
2023-01-10T15:12:53.698Z,9.18
2023-01-10T15:15:28.190Z,9.35
2023-01-10T15:17:56.138Z,9.33
2023-01-10T15:20:25.541Z,9.27
2023-01-10T15:22:57.885Z,9.20
2023-01-10T15:25:29.796Z,9.34
2023-01-10T15:27:59.662Z,9.30
2023-01-10T15:30:30.542Z,9.30
2023-01-10T15:33:02.863Z,9.24
2023-01-10T15:35:36.725Z,9.08
2023-01-10T15:38:08.095Z,9.13
2023-01-10T15:40:38.585Z,9.30
2023-01-10T15:43:25.954Z,9.29
2023-01-10T15:45:56.608Z,9.30
2023-01-10T15:48:30.260Z,9.08
2023-01-10T15:51:03.637Z,9.23
2023-01-10T15:54:03.115Z,9.26
2023-01-10T15:56:35.818Z,9.26
2023-01-10T15:59:04.893Z,9.25
2023-01-10T16:01:35.359Z,9.15
2023-01-10T16:04:05.573Z,9.27
2023-01-10T16:06:37.134Z,9.16
2023-01-10T16:09:08.133Z,9.04
2023-01-10T16:11:58.780Z,9.05
2023-01-10T16:14:26.937Z,8.98
2023-01-10T16:16:54.787Z,8.97
2023-01-10T16:19:22.702Z,8.89
2023-01-10T16:21:58.178Z,8.73
2023-01-10T16:24:29.078Z,8.95
2023-01-10T16:26:58.195Z,8.86
2023-01-10T16:29:27.402Z,8.72
2023-01-10T16:31:55.413Z,8.96
2023-01-10T16:34:24.373Z,8.92
2023-01-10T16:36:53.711Z,8.91
2023-01-10T16:39:25.958Z,8.71
2023-01-10T16:42:11.292Z,8.89
2023-01-10T16:44:39.515Z,8.78
2023-01-10T16:47:07.404Z,8.76
2023-01-10T16:49:35.181Z,8.82
2023-01-10T16:52:04.535Z,8.81
2023-01-10T16:54:35.600Z,8.90
2023-01-10T16:57:03.391Z,8.91
2023-01-10T16:59:31.495Z,8.73
2023-01-10T17:01:59.523Z,8.82
2023-01-10T17:04:30.582Z,8.65
2023-01-10T17:06:59.196Z,8.61
2023-01-10T17:09:31.803Z,8.55
2023-01-10T17:12:04.739Z,8.31
2023-01-10T17:14:34.895Z,8.59
2023-01-10T17:17:03.091Z,8.14
2023-01-10T17:19:30.818Z,8.46
2023-01-10T17:21:58.595Z,8.30
2023-01-10T17:24:29.638Z,8.55
2023-01-10T17:26:57.492Z,8.57
2023-01-10T17:29:26.360Z,8.57
2023-01-10T17:31:54.162Z,8.51
2023-01-10T17:34:22.003Z,8.57
2023-01-10T17:36:49.732Z,8.64
2023-01-10T17:39:17.545Z,8.49
2023-01-10T17:41:46.632Z,8.61
2023-01-10T17:44:14.440Z,8.66
2023-01-10T17:46:42.189Z,8.34
2023-01-10T17:49:11.869Z,8.50
2023-01-10T17:51:41.021Z,8.53
2023-01-10T17:54:08.763Z,8.53
2023-01-10T17:56:36.559Z,8.50
2023-01-10T17:59:05.672Z,8.53
2023-01-10T18:01:33.702Z,8.51
2023-01-10T18:04:01.430Z,8.40
2023-01-10T18:06:29.169Z,8.48
2023-01-10T18:08:56.943Z,8.37
2023-01-10T18:11:25.292Z,8.39
2023-01-10T18:13:53.097Z,8.37
2023-01-10T18:16:27.198Z,8.30
2023-01-10T18:18:55.130Z,8.31
2023-01-10T18:21:22.871Z,8.30
2023-01-10T18:24:01.818Z,8.25
2023-01-10T18:26:29.589Z,8.27
2023-01-10T18:28:57.349Z,8.20
2023-01-10T18:31:26.553Z,8.21
2023-01-10T18:33:54.399Z,8.11
2023-01-10T18:36:24.215Z,8.17
2023-01-10T18:38:52.582Z,8.16
2023-01-10T18:41:22.172Z,8.25
2023-01-10T18:43:49.945Z,8.28
2023-01-10T18:46:19.745Z,8.31
2023-01-10T18:48:52.286Z,8.36
2023-01-10T18:51:20.126Z,8.37
2023-01-10T18:53:48.983Z,8.37
2023-01-10T18:56:17.184Z,8.28
2023-01-10T18:58:44.980Z,8.27
2023-01-10T19:01:14.216Z,8.26
2023-01-10T19:03:42.306Z,8.31
2023-01-10T19:06:14.595Z,8.25
2023-01-10T19:08:43.194Z,8.29
2023-01-10T19:11:14.316Z,8.24
2023-01-10T19:13:43.202Z,8.30
2023-01-10T19:16:13.270Z,8.29
2023-01-10T19:18:41.755Z,8.39
2023-01-10T19:21:15.169Z,8.40
2023-01-10T19:23:43.356Z,8.32
2023-01-10T19:26:11.230Z,8.27
2023-01-10T19:28:39.008Z,8.34
2023-01-10T19:31:07.266Z,8.28
2023-01-10T19:33:37.384Z,8.40
2023-01-10T19:36:06.712Z,8.44
2023-01-10T19:38:36.045Z,8.45
2023-01-10T19:41:04.666Z,8.48
2023-01-10T19:43:33.796Z,8.46
2023-01-10T19:46:01.954Z,8.48
2023-01-10T19:48:29.762Z,8.46
2023-01-10T19:50:57.660Z,8.46
2023-01-10T19:53:27.130Z,8.51
2023-01-10T19:56:03.033Z,8.51
2023-01-10T19:58:31.848Z,8.51
2023-01-10T20:01:07.660Z,8.51
2023-01-10T20:03:35.605Z,8.54
2023-01-10T20:06:04.220Z,8.56
2023-01-10T20:08:32.523Z,8.61
2023-01-10T20:11:05.513Z,8.64
2023-01-10T20:13:33.767Z,8.49
2023-01-10T20:16:01.515Z,8.57
2023-01-10T20:18:29.296Z,8.58
2023-01-10T20:20:57.349Z,8.57
2023-01-10T20:23:25.375Z,8.38
2023-01-10T20:25:57.873Z,8.56
2023-01-10T20:28:27.121Z,8.55
2023-01-10T20:30:54.930Z,8.52
2023-01-10T20:33:23.014Z,8.49
2023-01-10T20:35:58.386Z,8.52
2023-01-10T20:38:26.717Z,8.57
2023-01-10T20:40:57.691Z,8.54
2023-01-10T20:43:27.638Z,8.65
2023-01-10T20:45:55.870Z,8.46
2023-01-10T20:48:24.260Z,8.63
2023-01-10T20:50:52.018Z,8.69
2023-01-10T20:53:19.844Z,8.77
2023-01-10T20:55:59.102Z,8.77
2023-01-10T20:58:28.946Z,8.77
2023-01-10T21:00:56.826Z,8.38
2023-01-10T21:03:24.771Z,8.79
2023-01-10T21:05:54.292Z,8.77
2023-01-10T21:08:23.562Z,8.72
2023-01-10T21:10:51.953Z,8.82
2023-01-10T21:13:19.971Z,8.60
2023-01-10T21:15:53.055Z,8.86
2023-01-10T21:18:24.152Z,8.87
2023-01-10T21:20:55.325Z,8.85
2023-01-10T21:23:25.123Z,8.95
2023-01-10T21:25:54.117Z,8.94
2023-01-10T21:28:22.038Z,8.86
2023-01-10T21:30:53.607Z,8.94
2023-01-10T21:33:21.351Z,8.95
2023-01-10T21:35:52.900Z,8.96
2023-01-10T21:38:20.720Z,8.99
2023-01-10T21:40:48.562Z,9.00
2023-01-10T21:43:16.446Z,9.00
2023-01-10T21:45:44.175Z,9.06
2023-01-10T21:48:13.537Z,9.02
2023-01-10T21:50:42.885Z,9.06
2023-01-10T21:53:10.677Z,9.16
2023-01-10T21:55:38.429Z,9.16
2023-01-10T21:58:06.157Z,9.13
2023-01-10T22:00:33.899Z,9.07
2023-01-10T22:03:01.623Z,9.17
2023-01-10T22:05:30.714Z,9.14
2023-01-10T22:07:58.416Z,9.17
2023-01-10T22:10:26.181Z,9.25
2023-01-10T22:12:53.896Z,9.27
2023-01-10T22:15:21.719Z,9.21
2023-01-10T22:17:49.494Z,9.17
2023-01-10T22:20:17.720Z,9.25
2023-01-10T22:22:46.770Z,9.31
2023-01-10T22:25:14.569Z,9.23
2023-01-10T22:27:44.865Z,9.21
2023-01-10T22:30:13.479Z,9.21
2023-01-10T22:32:41.164Z,9.26
2023-01-10T22:35:13.529Z,9.30
2023-01-10T22:37:41.563Z,9.17
2023-01-10T22:40:12.415Z,9.33
2023-01-10T22:42:40.191Z,9.30
2023-01-10T22:45:08.781Z,9.35
2023-01-10T22:47:36.503Z,9.38
2023-01-10T22:50:04.452Z,9.37
2023-01-10T22:52:32.570Z,9.38
2023-01-10T22:55:00.279Z,9.42
2023-01-10T22:57:32.977Z,9.41
2023-01-10T23:00:00.962Z,9.38
2023-01-10T23:02:29.251Z,9.44
2023-01-10T23:04:57.108Z,9.41
2023-01-10T23:07:24.953Z,9.36
2023-01-10T23:09:52.698Z,9.36
2023-01-10T23:12:20.494Z,9.38
2023-01-10T23:14:49.576Z,9.40
2023-01-10T23:17:17.256Z,9.41
2023-01-10T23:19:44.965Z,9.40
2023-01-10T23:22:12.688Z,9.42
2023-01-10T23:24:40.369Z,9.38
2023-01-10T23:27:08.171Z,9.38
2023-01-10T23:29:35.890Z,9.44
2023-01-10T23:32:05.286Z,9.35
2023-01-10T23:34:32.985Z,9.31
2023-01-10T23:37:00.756Z,9.24
2023-01-10T23:39:28.572Z,9.27
2023-01-10T23:41:56.318Z,9.34
2023-01-10T23:44:24.776Z,9.33
2023-01-10T23:46:52.556Z,9.33
2023-01-10T23:49:21.708Z,9.35
2023-01-10T23:51:49.705Z,9.32
2023-01-10T23:54:17.941Z,9.01
2023-01-10T23:56:45.697Z,9.35
2023-01-10T23:59:13.507Z,9.32
